Terminal Aerodrome Forecast
Issued by NWS

Home | Current Version | Previous Version | Text Only | Print | Product List | Glossary On
Versions: 1 2 3 4 5 6 7 8 9 10 11 12 13 14 15 16 17 18 19 20
329
FTUS41 KOKX 021335 AAA
TAFHPN
TAF AMD
KHPN 021335Z 0214/0312 09005KT 1/2SM FG VV001
     FM021500 09005KT 1 1/2SM -RA BR OVC004
     FM021700 14005KT 4SM BR OVC004
     FM021900 16005KT 6SM BR BKN009
     FM030300 VRB03KT 2SM BR OVC004
      AMD NOT SKED=

USA.gov is the U.S. government's official web portal to all federal, state and local government web resources and services.